Time;durP1;ratioP1;P1;durP2;ratioP2;P2;SDS_P1;SDS_P2;PMS_P1;PMS_P2;Temp;Humidity;BMP_temperature;BMP_pressure;BME280_temperature;BME280_humidity;BME280_pressure;Samples;Min_cycle;Max_cycle;Signal;HPM_P1;HPM_P2
2022/01/18 00:01:39;;;;;;;40.60;11.57;;;;;;;2.07;100.00;103638.41;5251809;28;20115;-70
2022/01/18 00:04:10;;;;;;;48.30;12.90;;;;;;;2.20;100.00;103636.72;5251012;28;20021;-70
2022/01/18 00:06:45;;;;;;;43.05;12.48;;;;;;;2.28;100.00;103638.53;5252281;28;20522;-70
2022/01/18 00:09:21;;;;;;;36.58;13.23;;;;;;;2.37;100.00;103644.69;5250609;28;20074;-69
2022/01/18 00:11:59;;;;;;;41.90;14.15;;;;;;;2.34;100.00;103648.19;5250318;28;20119;-69
2022/01/18 00:14:43;;;;;;;42.47;14.48;;;;;;;2.44;100.00;103649.97;5249436;28;20035;-69
2022/01/18 00:17:25;;;;;;;54.22;15.18;;;;;;;2.48;100.00;103651.75;5250927;28;20331;-69
2022/01/18 00:19:57;;;;;;;33.67;12.93;;;;;;;2.59;100.00;103650.88;5253473;28;20052;-69
2022/01/18 00:22:29;;;;;;;40.70;13.52;;;;;;;2.63;100.00;103647.41;5251255;28;20079;-69
2022/01/18 00:25:01;;;;;;;34.95;12.98;;;;;;;2.63;100.00;103648.25;5253089;28;20107;-69
2022/01/18 00:27:33;;;;;;;38.10;13.02;;;;;;;2.65;100.00;103646.50;5252086;28;20386;-69
2022/01/18 00:30:35;;;;;;;31.83;13.60;;;;;;;2.68;100.00;103651.78;5253126;28;20025;-69
2022/01/18 00:33:20;;;;;;;37.80;12.30;;;;;;;2.74;100.00;103654.44;5252978;28;20094;-70
2022/01/18 00:35:59;;;;;;;36.65;12.80;;;;;;;2.84;100.00;103665.88;5251212;28;20048;-70
2022/01/18 00:38:43;;;;;;;43.38;13.18;;;;;;;2.86;100.00;103672.03;5255020;28;20063;-69
2022/01/18 00:41:18;;;;;;;48.30;14.13;;;;;;;2.86;100.00;103671.16;5251003;28;20066;-69
2022/01/18 00:43:50;;;;;;;36.30;12.73;;;;;;;2.90;100.00;103665.00;5246974;28;20339;-69
2022/01/18 00:46:23;;;;;;;46.83;14.38;;;;;;;2.86;100.00;103660.63;5248313;28;20060;-69
2022/01/18 00:49:00;;;;;;;39.20;13.48;;;;;;;2.89;100.00;103671.16;5253696;28;20031;-69
2022/01/18 00:51:37;;;;;;;36.67;13.05;;;;;;;2.90;100.00;103673.78;5253050;28;20036;-69
2022/01/18 00:54:13;;;;;;;38.03;13.30;;;;;;;2.98;100.00;103675.56;5251671;28;20561;-69
2022/01/18 00:56:44;;;;;;;33.90;13.35;;;;;;;3.04;100.00;103672.94;5255738;28;20469;-69
2022/01/18 00:59:16;;;;;;;32.38;12.43;;;;;;;3.08;100.00;103682.59;5254935;28;20025;-69
2022/01/18 01:01:48;;;;;;;46.05;15.70;;;;;;;3.11;100.00;103682.63;5256520;28;20116;-69
2022/01/18 01:04:22;;;;;;;45.95;15.85;;;;;;;3.13;100.00;103675.56;5254775;28;20036;-70
2022/01/18 01:06:53;;;;;;;49.88;15.80;;;;;;;3.14;100.00;103680.84;5257381;28;20032;-69
2022/01/18 01:09:24;;;;;;;43.60;16.20;;;;;;;3.16;100.00;103674.69;5257707;28;20051;-69
2022/01/18 01:11:55;;;;;;;49.85;16.58;;;;;;;3.17;100.00;103681.75;5255297;28;20036;-69
2022/01/18 01:14:28;;;;;;;51.08;15.52;;;;;;;3.17;100.00;103671.19;5256683;28;20055;-69
2022/01/18 01:17:12;;;;;;;35.75;14.63;;;;;;;3.20;100.00;103666.75;5255900;28;20639;-69
2022/01/18 01:31:59;;;;;;;62.17;16.33;;;;;;;3.20;100.00;103663.25;5258466;28;20029;-69
2022/01/18 01:34:35;;;;;;;47.67;15.60;;;;;;;3.34;100.00;103667.66;5255917;28;20489;-69
2022/01/18 01:45:35;;;;;;;58.13;17.73;;;;;;;3.45;100.00;103665.00;5256554;28;20127;-69
2022/01/18 01:48:07;;;;;;;47.35;16.38;;;;;;;3.50;100.00;103665.88;5256523;28;20036;-69
2022/01/18 01:50:45;;;;;;;56.33;18.20;;;;;;;3.50;100.00;103668.50;5254564;28;20028;-69
2022/01/18 01:53:20;;;;;;;50.50;15.75;;;;;;;3.53;100.00;103667.66;5255034;28;20036;-69
2022/01/18 01:55:53;;;;;;;46.00;16.58;;;;;;;3.57;100.00;103665.84;5253756;28;20041;-69
2022/01/18 01:58:26;;;;;;;45.95;15.88;;;;;;;3.64;100.00;103665.84;5257500;28;20029;-69
2022/01/18 02:01:03;;;;;;;47.45;17.25;;;;;;;3.69;100.00;103671.13;5254962;28;20585;-69
2022/01/18 02:03:35;;;;;;;47.53;15.32;;;;;;;3.70;100.00;103665.84;5254553;28;20025;-69
2022/01/18 02:06:06;;;;;;;49.72;17.23;;;;;;;3.70;100.00;103662.31;5250402;28;20033;-69
2022/01/18 02:08:37;;;;;;;58.30;17.65;;;;;;;3.73;100.00;103671.09;5255772;28;20454;-69
2022/01/18 02:11:09;;;;;;;51.78;16.70;;;;;;;3.71;100.00;103675.50;5253583;28;20053;-69
2022/01/18 02:13:41;;;;;;;51.65;16.30;;;;;;;3.71;100.00;103672.88;5255270;28;20044;-70
2022/01/18 02:21:45;;;;;;;46.58;16.42;;;;;;;3.81;100.00;103672.84;5250185;28;20178;-69
2022/01/18 02:21:54;;;;;;;51.08;16.13;;;;;;;3.84;100.00;103670.22;5252742;28;20032;-69
2022/01/18 02:24:25;;;;;;;43.80;15.30;;;;;;;3.82;100.00;103675.50;5253405;28;20029;-69
2022/01/18 02:26:57;;;;;;;45.03;16.10;;;;;;;3.84;100.00;103675.50;5253000;28;20470;-69
2022/01/18 02:29:28;;;;;;;41.90;18.02;;;;;;;3.88;100.00;103671.97;5255078;28;20021;-69
2022/01/18 02:32:00;;;;;;;54.38;16.98;;;;;;;3.86;100.00;103668.44;5254175;28;20021;-69
2022/01/18 02:34:31;;;;;;;52.25;17.38;;;;;;;3.84;100.00;103665.81;5256286;28;20031;-69
2022/01/18 02:37:04;;;;;;;45.05;17.05;;;;;;;3.88;100.00;103659.63;5254511;28;20031;-69
2022/01/18 02:39:36;;;;;;;54.58;17.38;;;;;;;3.87;100.00;103660.53;5252410;28;20040;-69
2022/01/18 02:42:08;;;;;;;42.90;16.83;;;;;;;3.91;100.00;103654.34;5256777;28;20551;-69
2022/01/18 02:44:39;;;;;;;48.17;17.45;;;;;;;3.91;100.00;103646.41;5251531;28;20025;-69
2022/01/18 02:47:11;;;;;;;43.80;17.83;;;;;;;3.93;100.00;103649.03;5255917;28;20028;-69
2022/01/18 02:49:42;;;;;;;40.25;17.15;;;;;;;4.03;100.00;103650.78;5247744;28;20037;-69
2022/01/18 02:52:15;;;;;;;43.70;17.80;;;;;;;4.00;100.00;103655.19;5253759;28;20029;-69
2022/01/18 02:54:46;;;;;;;42.95;19.40;;;;;;;4.02;100.00;103658.69;5249352;28;20115;-69
2022/01/18 02:57:25;;;;;;;45.58;18.45;;;;;;;4.00;100.00;103657.84;5254490;28;20042;-69
2022/01/18 03:00:25;;;;;;;44.38;17.85;;;;;;;3.97;100.00;103658.72;5251035;28;20032;-69
2022/01/18 03:03:14;;;;;;;39.40;18.08;;;;;;;3.98;100.00;103652.53;5251249;28;20029;-69
2022/01/18 03:05:45;;;;;;;50.35;18.63;;;;;;;4.00;100.00;103653.41;5251065;28;20073;-69
2022/01/18 03:08:17;;;;;;;41.53;17.65;;;;;;;4.04;100.00;103656.94;5254300;28;20386;-69
2022/01/18 03:10:48;;;;;;;47.28;19.17;;;;;;;3.99;100.00;103658.69;5252522;28;20297;-69
2022/01/18 03:13:20;;;;;;;43.83;18.92;;;;;;;3.98;100.00;103652.53;5252581;28;20112;-70
2022/01/18 03:15:52;;;;;;;39.25;19.40;;;;;;;3.99;100.00;103656.97;5251924;28;20119;-70
2022/01/18 03:18:23;;;;;;;41.97;18.75;;;;;;;4.00;100.00;103653.41;5248786;28;20069;-70
2022/01/18 03:20:55;;;;;;;45.45;19.23;;;;;;;3.99;100.00;103659.59;5251419;28;20025;-70
2022/01/18 03:23:27;;;;;;;50.53;19.70;;;;;;;3.96;100.00;103669.28;5248978;28;20096;-69
2022/01/18 03:26:01;;;;;;;40.42;18.92;;;;;;;4.04;100.00;103676.28;5253157;28;20108;-69
2022/01/18 03:28:32;;;;;;;46.42;18.33;;;;;;;3.99;100.00;103670.16;5250346;28;20058;-69
2022/01/18 03:31:03;;;;;;;37.63;19.33;;;;;;;4.02;100.00;103664.84;5251975;28;20029;-69
2022/01/18 03:33:35;;;;;;;44.92;19.73;;;;;;;3.97;100.00;103671.94;5253909;28;20497;-69
2022/01/18 03:36:06;;;;;;;50.17;19.45;;;;;;;4.00;100.00;103679.84;5251696;28;20506;-70
2022/01/18 03:38:38;;;;;;;40.75;19.30;;;;;;;4.02;100.00;103670.13;5252412;28;20043;-70
2022/01/18 03:41:09;;;;;;;37.55;18.85;;;;;;;4.08;100.00;103663.97;5252306;28;20039;-69
2022/01/18 03:43:41;;;;;;;35.90;17.98;;;;;;;4.07;100.00;103665.72;5251828;28;20033;-69
2022/01/18 03:46:13;;;;;;;38.58;18.45;;;;;;;4.05;100.00;103667.50;5252181;28;20057;-69
2022/01/18 03:48:50;;;;;;;38.60;19.38;;;;;;;4.02;100.00;103669.28;5252577;28;20079;-69
2022/01/18 03:51:21;;;;;;;40.45;19.70;;;;;;;3.98;100.00;103673.69;5254756;28;20047;-69
2022/01/18 03:53:52;;;;;;;36.00;18.48;;;;;;;4.08;100.00;103679.81;5251847;28;20045;-69
2022/01/18 03:56:24;;;;;;;38.03;19.08;;;;;;;4.02;100.00;103675.44;5253288;28;20494;-69
2022/01/18 03:58:55;;;;;;;37.53;18.98;;;;;;;4.06;100.00;103681.59;5250202;28;20032;-69
2022/01/18 04:01:26;;;;;;;39.03;18.55;;;;;;;4.08;100.00;103679.81;5253147;28;20482;-69
2022/01/18 04:03:59;;;;;;;36.40;18.95;;;;;;;4.08;100.00;103678.03;5251560;28;20044;-69
2022/01/18 04:06:30;;;;;;;36.53;19.05;;;;;;;4.06;100.00;103685.09;5253727;28;20699;-69
2022/01/18 04:09:02;;;;;;;42.13;19.55;;;;;;;4.02;100.00;103695.69;5253032;28;21429;-69
2022/01/18 04:11:33;;;;;;;36.72;18.98;;;;;;;4.05;100.00;103688.63;5248649;28;20056;-69
2022/01/18 04:14:05;;;;;;;36.50;18.95;;;;;;;4.05;100.00;103691.28;5253687;28;20060;-69
2022/01/18 04:16:44;;;;;;;31.65;17.88;;;;;;;4.09;100.00;103690.38;5251752;28;20037;-69
2022/01/18 04:19:34;;;;;;;40.90;21.80;;;;;;;4.06;100.00;103685.09;5252280;28;20390;-69
2022/01/18 04:30:37;;;;;;;43.58;21.73;;;;;;;4.02;100.00;103701.84;5257538;28;20043;-69
2022/01/18 04:33:08;;;;;;;38.42;20.88;;;;;;;4.00;100.00;103702.75;5252883;28;20033;-70
2022/01/18 04:35:39;;;;;;;42.83;21.35;;;;;;;4.00;100.00;103694.81;5250699;28;20068;-69
2022/01/18 04:38:11;;;;;;;47.33;22.60;;;;;;;4.01;100.00;103693.91;5250747;28;20033;-69
2022/01/18 04:40:45;;;;;;;43.70;20.65;;;;;;;3.97;100.00;103693.06;5253854;28;20040;-69
2022/01/18 04:48:37;;;;;;;50.10;22.83;;;;;;;3.93;100.00;103697.47;5255438;28;20072;-69
2022/01/18 04:51:10;;;;;;;51.15;22.90;;;;;;;3.92;100.00;103700.13;5252823;28;20115;-69
2022/01/18 04:53:49;;;;;;;47.40;22.15;;;;;;;3.92;100.00;103698.34;5250145;28;20115;-69
2022/01/18 04:59:08;;;;;;;54.63;22.80;;;;;;;3.83;100.00;103702.78;5252570;28;20144;-69
2022/01/18 05:01:41;;;;;;;55.47;23.27;;;;;;;3.81;100.00;103692.22;5252751;28;20021;-69
2022/01/18 05:04:12;;;;;;;50.17;22.15;;;;;;;3.85;100.00;103711.56;5249977;28;20025;-69
2022/01/18 05:06:44;;;;;;;57.90;23.90;;;;;;;3.79;100.00;103701.91;5253681;28;20560;-69
2022/01/18 05:09:15;;;;;;;61.60;23.27;;;;;;;3.83;100.00;103698.38;5253011;28;20025;-69
2022/01/18 05:12:32;;;;;;;70.07;25.13;;;;;;;3.75;100.00;103708.06;5250431;28;20399;-69
2022/01/18 05:14:45;;;;;;;54.08;22.85;;;;;;;3.82;100.00;103714.25;5248339;28;20505;-69
2022/01/18 05:17:37;;;;;;;62.17;24.73;;;;;;;3.77;100.00;103716.00;5252479;28;20333;-69
2022/01/18 05:23:01;;;;;;;54.90;23.48;;;;;;;3.77;100.00;103719.50;5249886;28;20040;-69
2022/01/18 05:25:34;;;;;;;69.03;24.10;;;;;;;3.80;100.00;103710.72;5250803;28;20032;-69
2022/01/18 05:28:06;;;;;;;61.53;23.48;;;;;;;3.78;100.00;103717.75;5254130;28;20037;-69
2022/01/18 05:30:38;;;;;;;67.22;23.05;;;;;;;3.72;100.00;103711.59;5250327;28;20052;-69
2022/01/18 05:33:10;;;;;;;65.10;24.13;;;;;;;3.72;100.00;103716.00;5248105;28;20049;-69
2022/01/18 05:35:41;;;;;;;66.05;23.30;;;;;;;3.73;100.00;103715.13;5252406;28;20032;-69
2022/01/18 05:38:13;;;;;;;59.67;23.05;;;;;;;3.76;100.00;103719.50;5253447;28;20033;-69
2022/01/18 05:40:44;;;;;;;59.33;23.00;;;;;;;3.77;100.00;103722.16;5253025;28;20581;-69
2022/01/18 05:43:16;;;;;;;66.70;24.38;;;;;;;3.72;100.00;103716.88;5256023;28;20028;-70
2022/01/18 05:45:48;;;;;;;61.00;23.88;;;;;;;3.71;100.00;103707.19;5256475;28;20134;-69
2022/01/18 05:48:19;;;;;;;66.82;23.60;;;;;;;3.73;100.00;103709.84;5256811;28;20053;-69
2022/01/18 05:50:53;;;;;;;64.95;23.38;;;;;;;3.72;100.00;103708.97;5255416;28;20226;-70
2022/01/18 05:53:29;;;;;;;60.95;24.13;;;;;;;3.71;100.00;103707.19;5256224;28;20036;-70
2022/01/18 05:56:01;;;;;;;58.92;23.38;;;;;;;3.77;100.00;103710.72;5257556;28;20035;-70
2022/01/18 05:58:33;;;;;;;58.58;22.60;;;;;;;3.79;100.00;103714.22;5254115;28;20040;-69
2022/01/18 06:01:04;;;;;;;59.50;22.65;;;;;;;3.84;100.00;103704.56;5254225;28;20066;-69
2022/01/18 06:04:09;;;;;;;53.47;22.55;;;;;;;3.85;100.00;103701.88;5254793;28;20429;-69
2022/01/18 06:06:51;;;;;;;60.58;20.95;;;;;;;3.84;100.00;103704.56;5254055;28;20024;-69
2022/01/18 06:09:23;;;;;;;54.15;21.63;;;;;;;3.81;100.00;103710.69;5253922;28;20032;-69
2022/01/18 06:11:54;;;;;;;56.40;22.15;;;;;;;3.85;100.00;103708.94;5250852;28;20409;-69
2022/01/18 06:14:26;;;;;;;60.40;22.02;;;;;;;3.86;100.00;103702.78;5253177;28;20036;-70
2022/01/18 06:16:57;;;;;;;59.85;22.33;;;;;;;3.84;100.00;103707.19;5254493;28;20041;-69
2022/01/18 06:19:28;;;;;;;75.10;21.80;;;;;;;3.85;100.00;103711.56;5250303;28;20529;-69
2022/01/18 06:21:59;;;;;;;53.03;20.13;;;;;;;3.87;100.00;103705.44;5252278;28;20522;-69
2022/01/18 06:24:31;;;;;;;61.85;21.50;;;;;;;3.87;100.00;103701.88;5253355;28;20492;-69
2022/01/18 06:27:02;;;;;;;60.60;21.67;;;;;;;3.87;100.00;103716.00;5255580;28;20828;-69
2022/01/18 06:29:34;;;;;;;48.13;20.50;;;;;;;3.92;100.00;103714.19;5250535;28;20033;-69
2022/01/18 06:32:06;;;;;;;70.70;23.23;;;;;;;3.91;100.00;103719.47;5253088;28;20043;-69
2022/01/18 06:34:37;;;;;;;53.70;20.90;;;;;;;3.93;100.00;103705.41;5251887;28;20033;-69
2022/01/18 06:37:09;;;;;;;54.88;20.48;;;;;;;3.95;100.00;103702.78;5251069;28;20057;-69
2022/01/18 06:39:40;;;;;;;58.83;21.25;;;;;;;3.98;100.00;103700.09;5251742;28;20025;-69
2022/01/18 06:42:14;;;;;;;58.88;20.65;;;;;;;3.99;100.00;103696.59;5253334;28;20036;-69
2022/01/18 06:44:45;;;;;;;46.60;19.07;;;;;;;4.07;100.00;103702.72;5250889;28;20033;-69
2022/01/18 06:47:16;;;;;;;72.85;22.10;;;;;;;3.97;100.00;103705.38;5250344;28;20390;-69
2022/01/18 06:49:48;;;;;;;64.47;21.25;;;;;;;3.96;100.00;103707.16;5251000;28;20615;-70
2022/01/18 06:52:19;;;;;;;55.40;20.63;;;;;;;3.99;100.00;103711.53;5250331;28;20741;-69
2022/01/18 06:54:51;;;;;;;47.15;20.52;;;;;;;4.07;100.00;103708.00;5254598;28;20108;-69
2022/01/18 06:57:22;;;;;;;53.05;20.73;;;;;;;4.15;100.00;103707.09;5251457;28;21099;-69
2022/01/18 06:59:53;;;;;;;59.88;21.30;;;;;;;4.09;100.00;103714.16;5251692;28;20119;-69
2022/01/18 07:02:24;;;;;;;63.30;22.00;;;;;;;4.07;100.00;103715.94;5252438;28;20040;-69
2022/01/18 07:04:56;;;;;;;65.72;20.98;;;;;;;4.07;100.00;103715.06;5250603;28;20044;-69
2022/01/18 07:07:27;;;;;;;55.95;20.20;;;;;;;4.11;100.00;103715.03;5256945;28;20024;-70
2022/01/18 07:09:58;;;;;;;57.55;20.35;;;;;;;4.07;100.00;103720.34;5250025;28;20076;-70
2022/01/18 07:12:34;;;;;;;58.58;19.13;;;;;;;4.06;100.00;103722.09;5248921;28;20032;-69
2022/01/18 07:15:09;;;;;;;58.92;20.05;;;;;;;4.07;100.00;103721.22;5248326;28;20484;-69
2022/01/18 07:17:40;;;;;;;58.95;19.60;;;;;;;4.11;100.00;103725.59;5252548;28;20029;-69
2022/01/18 07:20:12;;;;;;;55.42;19.33;;;;;;;4.13;100.00;103722.97;5254710;28;20398;-69
2022/01/18 07:22:43;;;;;;;53.45;19.25;;;;;;;4.13;100.00;103723.81;5249487;28;20060;-69
2022/01/18 07:25:17;;;;;;;49.20;18.42;;;;;;;4.17;100.00;103731.75;5244176;28;20065;-69
2022/01/18 07:27:48;;;;;;;53.00;18.67;;;;;;;4.15;100.00;103734.41;5251530;28;20024;-69
2022/01/18 07:30:19;;;;;;;58.03;20.35;;;;;;;4.10;100.00;103734.44;5253965;28;20025;-69
2022/01/18 07:32:51;;;;;;;48.97;18.98;;;;;;;4.13;100.00;103739.69;5252257;28;20033;-69
2022/01/18 07:35:23;;;;;;;57.33;19.63;;;;;;;4.10;100.00;103738.81;5252006;28;20560;-69
2022/01/18 07:37:56;;;;;;;58.22;21.25;;;;;;;4.05;100.00;103733.56;5248154;28;20033;-69
2022/01/18 07:40:29;;;;;;;50.13;19.90;;;;;;;4.04;100.00;103739.69;5253752;28;20491;-69
2022/01/18 07:43:01;;;;;;;50.88;19.23;;;;;;;4.04;100.00;103741.47;5251992;28;20028;-69
2022/01/18 07:45:33;;;;;;;58.53;19.73;;;;;;;3.99;100.00;103738.84;5252818;28;20513;-69
2022/01/18 07:48:04;;;;;;;50.00;20.33;;;;;;;4.07;100.00;103744.13;5247661;28;20031;-69
2022/01/18 07:50:36;;;;;;;50.40;19.70;;;;;;;4.06;100.00;103742.34;5255275;28;20036;-69
2022/01/18 07:53:07;;;;;;;42.42;18.15;;;;;;;4.10;100.00;103752.94;5252370;28;20113;-69
2022/01/18 07:55:39;;;;;;;49.95;19.27;;;;;;;4.13;100.00;103746.75;5251928;28;20170;-69
2022/01/18 07:58:10;;;;;;;49.55;19.38;;;;;;;4.14;100.00;103743.19;5250979;28;20048;-69
2022/01/18 08:00:41;;;;;;;45.13;18.38;;;;;;;4.19;100.00;103746.72;5254039;28;20037;-69
2022/01/18 08:03:13;;;;;;;49.95;18.15;;;;;;;4.17;100.00;103747.63;5250283;28;20044;-69
2022/01/18 08:05:45;;;;;;;45.42;18.25;;;;;;;4.23;100.00;103755.53;5252592;28;20379;-69
2022/01/18 08:08:16;;;;;;;41.00;16.73;;;;;;;4.21;100.00;103746.72;5254351;28;20023;-69
2022/01/18 08:10:48;;;;;;;45.22;17.83;;;;;;;4.24;100.00;103747.59;5252507;28;20115;-69
2022/01/18 08:13:25;;;;;;;56.55;20.00;;;;;;;4.24;100.00;103762.56;5250192;28;20107;-70
2022/01/18 08:16:09;;;;;;;60.47;22.10;;;;;;;4.19;100.00;103759.94;5250576;28;20055;-69
2022/01/18 08:18:40;;;;;;;64.65;21.98;;;;;;;4.17;100.00;103742.31;5249682;28;20447;-69
2022/01/18 08:21:12;;;;;;;62.53;22.85;;;;;;;4.16;100.00;103745.84;5252542;28;20036;-69
2022/01/18 08:23:43;;;;;;;68.20;22.45;;;;;;;4.18;100.00;103739.69;5250704;28;20065;-69
2022/01/18 08:26:15;;;;;;;64.50;22.52;;;;;;;4.20;100.00;103742.31;5247993;28;20051;-69
2022/01/18 08:28:47;;;;;;;83.90;24.80;;;;;;;4.20;100.00;103752.88;5245708;28;20033;-69
2022/01/18 08:31:18;;;;;;;70.07;23.52;;;;;;;4.23;100.00;103744.94;5253319;28;20321;-69
2022/01/18 08:33:49;;;;;;;76.50;24.00;;;;;;;4.22;100.00;103741.44;5247103;28;20171;-69
2022/01/18 08:36:21;;;;;;;71.15;23.25;;;;;;;4.24;100.00;103741.44;5252316;28;20057;-70
2022/01/18 08:38:53;;;;;;;77.10;24.83;;;;;;;4.24;100.00;103737.03;5248452;28;20086;-70
2022/01/18 08:41:24;;;;;;;69.40;22.40;;;;;;;4.26;100.00;103737.88;5253435;28;20376;-69
2022/01/18 08:43:56;;;;;;;68.03;22.48;;;;;;;4.32;100.00;103742.28;5250831;28;20084;-69
2022/01/18 08:46:28;;;;;;;74.88;23.23;;;;;;;4.35;100.00;103744.03;5252657;28;20135;-69
2022/01/18 08:49:00;;;;;;;57.78;21.85;;;;;;;4.42;100.00;103746.63;5251723;28;20029;-69
2022/01/18 08:51:31;;;;;;;78.25;22.33;;;;;;;4.43;100.00;103751.06;5252346;28;20027;-69
2022/01/18 08:54:04;;;;;;;60.70;21.35;;;;;;;4.46;100.00;103755.44;5253466;28;20051;-69
2022/01/18 08:56:35;;;;;;;55.45;21.67;;;;;;;4.49;100.00;103751.03;5249781;28;20021;-69
2022/01/18 08:59:06;;;;;;;65.25;22.70;;;;;;;4.51;100.00;103751.88;5251430;28;20033;-69
2022/01/18 09:01:38;;;;;;;70.05;20.30;;;;;;;4.57;100.00;103752.75;5255713;28;20037;-69
2022/01/18 09:04:09;;;;;;;66.47;21.08;;;;;;;4.61;100.00;103755.38;5254782;28;20036;-70
2022/01/18 09:06:41;;;;;;;70.50;22.10;;;;;;;4.64;100.00;103746.53;5249948;28;20025;-70
2022/01/18 09:09:14;;;;;;;69.35;23.58;;;;;;;4.66;100.00;103747.41;5252777;28;20107;-70
2022/01/18 09:11:46;;;;;;;69.78;23.50;;;;;;;4.68;100.00;103750.94;5253299;28;20028;-69
2022/01/18 09:14:17;;;;;;;64.07;22.10;;;;;;;4.72;100.00;103757.97;5253685;28;20029;-69
2022/01/18 09:16:49;;;;;;;57.72;22.23;;;;;;;4.74;100.00;103755.31;5257118;28;20450;-69
2022/01/18 09:19:20;;;;;;;80.20;23.40;;;;;;;4.75;100.00;103752.66;5257315;28;20020;-69
2022/01/18 09:21:51;;;;;;;70.43;20.88;;;;;;;4.78;100.00;103767.66;5255104;28;20035;-69
2022/01/18 09:24:22;;;;;;;58.60;20.48;;;;;;;4.79;100.00;103764.97;5255083;28;20061;-69
2022/01/18 09:26:54;;;;;;;50.47;19.67;;;;;;;4.81;100.00;103771.13;5249255;28;20024;-69
2022/01/18 09:29:25;;;;;;;47.30;18.65;;;;;;;4.85;100.00;103772.91;5253271;28;20379;-69
2022/01/18 09:31:57;;;;;;;65.97;21.80;;;;;;;4.85;100.00;103764.97;5254091;28;20089;-69
2022/01/18 09:34:28;;;;;;;59.90;21.40;;;;;;;4.88;100.00;103772.00;5255209;28;20031;-69
2022/01/18 09:36:59;;;;;;;66.53;20.83;;;;;;;4.88;100.00;103772.88;5253129;28;20083;-69
2022/01/18 09:39:30;;;;;;;61.65;21.15;;;;;;;4.93;100.00;103771.97;5257597;28;20029;-69
2022/01/18 09:42:04;;;;;;;59.70;20.98;;;;;;;4.92;100.00;103771.09;5253114;28;21843;-69
2022/01/18 09:44:36;;;;;;;63.35;19.92;;;;;;;5.02;100.00;103769.25;5256537;28;20025;-69
2022/01/18 09:47:07;;;;;;;52.80;21.08;;;;;;;5.03;100.00;103782.50;5258105;28;20025;-69
2022/01/18 09:49:39;;;;;;;61.08;20.75;;;;;;;5.13;100.00;103772.72;5254400;28;20031;-69
2022/01/18 09:52:11;;;;;;;48.55;20.02;;;;;;;5.18;100.00;103781.53;5256378;28;20394;-69
2022/01/18 09:54:43;;;;;;;56.47;20.58;;;;;;;5.25;100.00;103780.59;5254438;28;20053;-69
2022/01/18 09:57:14;;;;;;;53.65;20.42;;;;;;;5.35;100.00;103783.16;5257387;28;20124;-69
2022/01/18 09:59:45;;;;;;;56.90;21.45;;;;;;;5.37;100.00;103779.63;5250870;28;20083;-69
2022/01/18 10:02:17;;;;;;;49.40;20.80;;;;;;;5.43;100.00;103784.88;5256201;28;20044;-69
2022/01/18 10:04:49;;;;;;;53.90;21.52;;;;;;;5.46;100.00;103781.31;5255281;28;20040;-69
2022/01/18 10:07:34;;;;;;;54.78;23.30;;;;;;;5.44;100.00;103776.03;5256974;28;20072;-69
2022/01/18 10:10:07;;;;;;;55.20;22.92;;;;;;;5.33;100.00;103783.19;5248629;28;20041;-69
2022/01/18 10:12:38;;;;;;;63.45;22.60;;;;;;;5.34;100.00;103781.41;5252066;28;20025;-69
2022/01/18 10:15:09;;;;;;;58.53;23.42;;;;;;;5.27;100.00;103780.56;5249857;28;22544;-69
2022/01/18 10:17:40;;;;;;;58.30;21.75;;;;;;;5.28;100.00;103790.28;5249955;28;20576;-69
2022/01/18 10:20:17;;;;;;;56.05;22.85;;;;;;;5.28;100.00;103785.84;5253158;28;20505;-69
2022/01/18 10:22:49;;;;;;;55.10;22.70;;;;;;;5.37;100.00;103789.31;5247718;28;20036;-69
2022/01/18 10:25:33;;;;;;;57.78;23.63;;;;;;;5.36;100.00;103775.22;5247235;28;20090;-69
2022/01/18 10:28:04;;;;;;;58.80;23.63;;;;;;;5.34;100.00;103777.00;5249401;28;20387;-69
2022/01/18 10:30:43;;;;;;;59.03;22.70;;;;;;;5.41;100.00;103783.16;5251886;28;20092;-69
2022/01/18 10:33:18;;;;;;;57.47;23.52;;;;;;;5.45;100.00;103771.63;5250620;28;20037;-69
2022/01/18 10:36:11;;;;;;;57.65;23.17;;;;;;;5.55;100.00;103769.78;5250808;28;20036;-69
2022/01/18 10:38:47;;;;;;;48.88;20.90;;;;;;;5.59;100.00;103767.09;5250303;28;20087;-69
2022/01/18 10:41:28;;;;;;;46.50;21.27;;;;;;;5.65;100.00;103769.69;5251097;28;20976;-69
2022/01/18 10:44:14;;;;;;;53.90;20.50;;;;;;;5.67;100.00;103765.25;5248042;28;20029;-70
2022/01/18 10:46:57;;;;;;;52.60;21.73;;;;;;;5.75;100.00;103762.53;5250517;28;20025;-70
2022/01/18 10:49:32;;;;;;;45.35;21.38;;;;;;;5.76;100.00;103769.59;5249127;28;20033;-69
2022/01/18 10:52:10;;;;;;;48.55;21.27;;;;;;;5.87;100.00;103753.59;5251767;28;20041;-69
2022/01/18 10:54:47;;;;;;;51.83;25.38;;;;;;;5.92;100.00;103754.41;5250651;28;20033;-69
2022/01/18 10:57:28;;;;;;;54.17;25.55;;;;;;;5.86;100.00;103747.41;5248761;28;21773;-69
2022/01/18 11:00:18;;;;;;;52.67;23.00;;;;;;;5.82;100.00;103742.16;5249166;28;20407;-70
2022/01/18 11:02:54;;;;;;;51.38;24.77;;;;;;;5.77;100.00;103750.16;5250143;28;20509;-70
2022/01/18 11:05:29;;;;;;;54.65;24.00;;;;;;;5.70;100.00;103745.81;5248308;28;20021;-70
2022/01/18 11:08:03;;;;;;;;;;;;;;;5.71;100.00;103744.91;5248726;28;20467;-70
2022/01/18 11:10:37;;;;;;;53.30;23.25;;;;;;;5.63;100.00;103739.69;5249358;28;20630;-70
2022/01/18 11:13:22;;;;;;;57.30;22.55;;;;;;;5.62;100.00;103743.25;5249418;28;20037;-70
2022/01/18 11:16:03;;;;;;;64.55;23.92;;;;;;;5.65;100.00;103734.38;5249458;28;20211;-70
2022/01/18 11:18:37;;;;;;;48.90;23.02;;;;;;;5.64;100.00;103727.34;5248782;28;20036;-70
2022/01/18 11:21:08;;;;;;;58.55;22.67;;;;;;;5.66;100.00;103737.00;5249751;28;20552;-69
2022/01/18 11:23:40;;;;;;;55.92;23.65;;;;;;;5.79;100.00;103734.22;5248582;28;20703;-69
2022/01/18 11:26:12;;;;;;;54.03;23.80;;;;;;;5.81;100.00;103732.44;5250240;28;20452;-69
2022/01/18 11:28:43;;;;;;;63.78;23.05;;;;;;;5.82;100.00;103731.56;5246026;28;20033;-69
2022/01/18 11:31:14;;;;;;;52.72;21.30;;;;;;;5.80;100.00;103723.63;5249746;28;20025;-69
2022/01/18 11:33:54;;;;;;;57.95;21.23;;;;;;;5.86;100.00;103723.56;5250037;28;20060;-69
2022/01/18 11:36:33;;;;;;;51.60;21.05;;;;;;;5.83;100.00;103725.34;5247275;28;20037;-70
2022/01/18 11:39:06;;;;;;;46.78;19.10;;;;;;;5.85;100.00;103726.25;5247720;28;20083;-69
2022/01/18 11:41:38;;;;;;;48.35;18.33;;;;;;;5.82;100.00;103721.84;5248861;28;20031;-69
2022/01/18 11:44:22;;;;;;;41.42;17.25;;;;;;;5.81;100.00;103716.56;5249063;28;20033;-69
2022/01/18 11:46:55;;;;;;;43.55;16.63;;;;;;;5.81;100.00;103709.50;5251518;28;20730;-69
2022/01/18 11:49:30;;;;;;;46.70;17.35;;;;;;;5.79;100.00;103716.59;5251517;28;20056;-69
2022/01/18 11:52:10;;;;;;;50.70;18.33;;;;;;;5.78;100.00;103711.31;5252138;28;20438;-69
2022/01/18 11:57:23;;;;;;;43.15;18.88;;;;;;;5.82;100.00;103715.66;5251720;28;20425;-69
2022/01/18 12:00:06;;;;;;;51.40;18.02;;;;;;;5.84;100.00;103716.53;5248712;28;20032;-69
2022/01/18 12:02:43;;;;;;;53.15;18.08;;;;;;;5.85;100.00;103713.88;5252980;28;20029;-69
2022/01/18 12:05:20;;;;;;;44.35;17.35;;;;;;;5.86;100.00;103712.97;5248832;28;20029;-69
2022/01/18 12:07:55;;;;;;;44.10;17.92;;;;;;;5.90;100.00;103708.50;5251295;28;20029;-69
2022/01/18 12:10:38;;;;;;;40.20;16.27;;;;;;;5.90;100.00;103697.91;5250430;28;20581;-70
2022/01/18 12:13:23;;;;;;;46.08;17.55;;;;;;;5.92;100.00;103698.75;5249445;28;20029;-70
2022/01/18 12:16:00;;;;;;;50.90;17.17;;;;;;;5.93;100.00;103695.25;5249112;28;20024;-70
2022/01/18 12:18:32;;;;;;;42.60;17.60;;;;;;;5.90;100.00;103689.97;5249646;28;20029;-69
2022/01/18 12:21:16;;;;;;;38.53;15.45;;;;;;;5.90;100.00;103697.91;5242094;28;20029;-69
2022/01/18 12:23:47;;;;;;;42.35;15.13;;;;;;;5.92;100.00;103704.06;5249388;28;20071;-69
2022/01/18 12:26:38;;;;;;;44.05;16.45;;;;;;;5.92;100.00;103704.06;5248006;28;20116;-69